• Join FlightAware (Why Join?)
  • Login
  • US Flag 
09:42PM EDT


 

Airport Tracker/Info


-or-


 

Live Flight TrackerFlight Track Log ✈ CES5800 ✈ 18-May-2013 ✈ ZYTL / DLC - ZHLY / LYA

Flight Track Log - Related Links

Times and Time Zones

All times are in EDT time to prevent confusion due to time zone crossing. See the CES5800 flight status page for this flight to view local times or setup timezone preferences in your user account.

Time Position Orientation Groundspeed Altitude Reporting Facility
EDT Latitude Longitude Course Direction KTS MPH feet Rate Location/Type
03:34AM 38.4727 120.3277 243° Southwest  Level Estimated
03:35AM 38.4342 120.2352 242° Southwest  Level Estimated
03:36AM 38.3957 120.1429 242° Southwest  Level Estimated
03:37AM 38.3571 120.0506 242° Southwest  Level Estimated
03:38AM 38.3185 119.9585 242° Southwest  Level Estimated
03:39AM 38.2798 119.8664 242° Southwest  Level Estimated
03:40AM 38.2410 119.7744 242° Southwest  Level Estimated
03:41AM 38.2021 119.6826 242° Southwest  Level Estimated
03:42AM 38.1632 119.5908 242° Southwest  Level Estimated
03:43AM 38.1241 119.4991 242° Southwest  Level Estimated
03:44AM 38.0851 119.4075 242° Southwest  Level Estimated
03:45AM 38.0459 119.3161 241° Southwest  Level Estimated
03:46AM 38.0067 119.2247 241° Southwest  Level Estimated
03:47AM 37.9674 119.1334 241° Southwest  Level Estimated
03:48AM 37.9280 119.0422 241° Southwest  Level Estimated
03:49AM 37.8886 118.9512 241° Southwest  Level Estimated
03:50AM 37.8491 118.8602 241° Southwest  Level Estimated
03:51AM 37.8095 118.7693 241° Southwest  Level Estimated
03:52AM 37.7698 118.6785 241° Southwest  Level Estimated
03:53AM 37.7301 118.5878 241° Southwest  Level Estimated
03:54AM 37.6903 118.4972 241° Southwest  Level Estimated
03:55AM 37.6505 118.4067 241° Southwest  Level Estimated
03:56AM 37.6105 118.3163 241° Southwest  Level Estimated
03:57AM 37.5706 118.2260 241° Southwest  Level Estimated
03:58AM 37.5305 118.1358 241° Southwest  Level Estimated
03:59AM 37.4904 118.0457 241° Southwest  Level Estimated
04:00AM 37.4502 117.9557 241° Southwest  Level Estimated
04:01AM 37.4099 117.8658 241° Southwest  Level Estimated
04:02AM 37.3696 117.7759 241° Southwest  Level Estimated
04:03AM 37.3292 117.6862 240° Southwest  Level Estimated
04:04AM 37.2887 117.5966 240° Southwest  Level Estimated
04:05AM 37.2482 117.5070 240° Southwest  Level Estimated
04:06AM 37.2076 117.4176 240° Southwest  Level Estimated
04:07AM 37.1669 117.3283 240° Southwest  Level Estimated
04:08AM 37.1261 117.2390 240° Southwest  Level Estimated
04:09AM 37.0853 117.1499 240° Southwest  Level Estimated
04:10AM 37.0445 117.0608 240° Southwest  Level Estimated
04:11AM 37.0035 116.9719 240° Southwest  Level Estimated
04:12AM 36.9625 116.8830 240° Southwest  Level Estimated
04:13AM 36.9215 116.7943 240° Southwest  Level Estimated
04:14AM 36.8803 116.7056 240° Southwest  Level Estimated
04:15AM 36.8391 116.6170 240° Southwest  Level Estimated
04:16AM 36.7978 116.5285 240° Southwest  Level Estimated
04:17AM 36.7565 116.4402 240° Southwest  Level Estimated
04:18AM 36.7151 116.3519 240° Southwest  Level Estimated
04:19AM 36.6736 116.2637 240° Southwest  Level Estimated
04:20AM 36.6321 116.1756 240° Southwest  Level Estimated
04:21AM 36.5905 116.0876 240° Southwest  Level Estimated
04:22AM 36.5489 115.9997 239° Southwest  Level Estimated
04:23AM 36.5071 115.9119 239° Southwest  Level Estimated
04:24AM 36.4654 115.8242 239° Southwest  Level Estimated
04:25AM 36.4235 115.7366 239° Southwest  Level Estimated
04:26AM 36.3816 115.6490 239° Southwest  Level Estimated
04:27AM 36.3396 115.5616 239° Southwest  Level Estimated
04:28AM 36.2976 115.4743 239° Southwest  Level Estimated
04:29AM 36.2555 115.3870 239° Southwest  Level Estimated
04:30AM 36.2133 115.2999 239° Southwest  Level Estimated
04:31AM 36.1711 115.2128 239° Southwest  Level Estimated
04:32AM 36.1288 115.1259 239° Southwest  Level Estimated
04:33AM 36.0864 115.0390 239° Southwest  Level Estimated
04:34AM 36.0440 114.9522 239° Southwest  Level Estimated
04:35AM 36.0015 114.8655 239° Southwest  Level Estimated
04:36AM 35.9590 114.7790 239° Southwest  Level Estimated
04:37AM 35.9163 114.6925 239° Southwest  Level Estimated
04:38AM 35.8737 114.6061 239° Southwest  Level Estimated
04:39AM 35.8309 114.5198 239° Southwest  Level Estimated
04:40AM 35.7882 114.4335 239° Southwest  Level Estimated
04:41AM 35.7453 114.3474 239° Southwest  Level Estimated
04:42AM 35.7024 114.2614 238° Southwest  Level Estimated
04:43AM 35.6594 114.1755 238° Southwest  Level Estimated
04:44AM 35.6163 114.0896 238° Southwest  Level Estimated
04:45AM 35.5732 114.0039 238° Southwest  Level Estimated
04:46AM 35.5301 113.9182 238° Southwest  Level Estimated
04:47AM 35.4869 113.8326 238° Southwest  Level Estimated
04:48AM 35.4436 113.7471 238° Southwest  Level Estimated
04:49AM 35.4002 113.6618 238° Southwest  Level Estimated
04:50AM 35.3568 113.5765 238° Southwest  Level Estimated
04:51AM 35.3134 113.4913 238° Southwest  Level Estimated
04:52AM 35.2699 113.4062 238° Southwest  Level Estimated
04:53AM 35.2263 113.3212 238° Southwest  Level Estimated
04:54AM 35.1827 113.2362 238° Southwest  Level Estimated
04:55AM 35.1390 113.1514 238° Southwest  Level Estimated
04:56AM 35.0952 113.0667 238° Southwest  Level Estimated
04:57AM 35.0514 112.9820 238° Southwest  Level Estimated
04:58AM 35.0075 112.8974 238° Southwest  Level Estimated
04:59AM 34.9636 112.8130 238° Southwest  Level Estimated
05:00AM 34.9196 112.7286 238° Southwest  Level Estimated
05:01AM 34.8733 112.6400 238° Southwest  Level Estimated
05:02AM 34.8269 112.5515 237° Southwest  Level Estimated
05:03AM 34.7805 112.4631 237° Southwest  Level Estimated
05:04AM 34.7411 112.3883 237° Southwest  Level Estimated
05:05AM 34.7411 112.3883 68° East  Level Estimated
05:06AM 34.7411 112.3883 68° East  Level Estimated
05:07AM 34.7411 112.3883 68° East  Level Estimated
05:08AM 34.7411 112.3883 68° East  Level Estimated
05:09AM 34.7411 112.3883 68° East  Level Estimated
05:10AM 34.7411 112.3883 68° East  Level Estimated
05:11AM 34.7411 112.3883 68° East  Level Estimated
05:12AM 34.7411 112.3883 68° East  Level Estimated
05:13AM 34.7411 112.3883 68° East  Level Estimated
05:14AM 34.7411 112.3883 68° East  Level Estimated
05:15AM 34.7411 112.3883 68° East  Level Estimated